sensor_id;sensor_type;location;lat;lon;timestamp;P1;durP1;ratioP1;P2;durP2;ratioP2
55728;SDS011;41633;39.720;2.910;2023-01-25T00:01:25;11.65;;;3.80;;
55728;SDS011;41633;39.720;2.910;2023-01-25T00:03:51;13.00;;;3.50;;
55728;SDS011;41633;39.720;2.910;2023-01-25T00:06:17;13.10;;;4.15;;
55728;SDS011;41633;39.720;2.910;2023-01-25T00:08:47;15.88;;;3.70;;
55728;SDS011;41633;39.720;2.910;2023-01-25T00:11:14;15.90;;;5.22;;
55728;SDS011;41633;39.720;2.910;2023-01-25T00:13:41;14.20;;;5.60;;
55728;SDS011;41633;39.720;2.910;2023-01-25T00:18:34;18.02;;;7.35;;
55728;SDS011;41633;39.720;2.910;2023-01-25T00:21:10;16.38;;;6.05;;
55728;SDS011;41633;39.720;2.910;2023-01-25T00:23:36;19.75;;;6.03;;
55728;SDS011;41633;39.720;2.910;2023-01-25T00:26:02;16.52;;;5.15;;
55728;SDS011;41633;39.720;2.910;2023-01-25T00:28:28;18.60;;;5.75;;
55728;SDS011;41633;39.720;2.910;2023-01-25T00:31:01;17.45;;;5.45;;
55728;SDS011;41633;39.720;2.910;2023-01-25T00:38:50;28.00;;;11.52;;
55728;SDS011;41633;39.720;2.910;2023-01-25T00:41:18;19.08;;;6.40;;
55728;SDS011;41633;39.720;2.910;2023-01-25T00:43:44;21.05;;;6.15;;
55728;SDS011;41633;39.720;2.910;2023-01-25T00:46:14;16.85;;;5.57;;
55728;SDS011;41633;39.720;2.910;2023-01-25T00:48:40;16.17;;;4.85;;
55728;SDS011;41633;39.720;2.910;2023-01-25T00:51:06;17.20;;;4.50;;
55728;SDS011;41633;39.720;2.910;2023-01-25T00:53:32;19.85;;;7.07;;
55728;SDS011;41633;39.720;2.910;2023-01-25T00:55:59;18.38;;;5.80;;
55728;SDS011;41633;39.720;2.910;2023-01-25T00:58:25;13.35;;;3.47;;
55728;SDS011;41633;39.720;2.910;2023-01-25T01:00:55;12.68;;;4.28;;
55728;SDS011;41633;39.720;2.910;2023-01-25T01:03:21;11.63;;;2.90;;
55728;SDS011;41633;39.720;2.910;2023-01-25T01:05:48;10.85;;;2.88;;
55728;SDS011;41633;39.720;2.910;2023-01-25T01:08:14;9.95;;;2.53;;
55728;SDS011;41633;39.720;2.910;2023-01-25T01:10:40;11.00;;;2.70;;
55728;SDS011;41633;39.720;2.910;2023-01-25T01:13:06;10.10;;;2.05;;
55728;SDS011;41633;39.720;2.910;2023-01-25T01:15:36;8.50;;;1.85;;
55728;SDS011;41633;39.720;2.910;2023-01-25T01:18:02;11.63;;;2.45;;
55728;SDS011;41633;39.720;2.910;2023-01-25T01:20:28;10.10;;;2.17;;
55728;SDS011;41633;39.720;2.910;2023-01-25T01:22:54;10.02;;;2.22;;
55728;SDS011;41633;39.720;2.910;2023-01-25T01:25:20;7.47;;;1.90;;
55728;SDS011;41633;39.720;2.910;2023-01-25T01:27:47;8.32;;;1.90;;
55728;SDS011;41633;39.720;2.910;2023-01-25T01:30:13;9.50;;;2.53;;
55728;SDS011;41633;39.720;2.910;2023-01-25T01:32:39;16.95;;;5.28;;
55728;SDS011;41633;39.720;2.910;2023-01-25T01:35:05;12.45;;;3.72;;
55728;SDS011;41633;39.720;2.910;2023-01-25T01:37:31;10.35;;;2.80;;
55728;SDS011;41633;39.720;2.910;2023-01-25T01:39:57;13.32;;;3.08;;
55728;SDS011;41633;39.720;2.910;2023-01-25T01:42:24;13.07;;;3.30;;
55728;SDS011;41633;39.720;2.910;2023-01-25T01:44:51;14.75;;;3.75;;
55728;SDS011;41633;39.720;2.910;2023-01-25T01:47:28;11.98;;;3.47;;
55728;SDS011;41633;39.720;2.910;2023-01-25T01:49:57;13.18;;;3.40;;
55728;SDS011;41633;39.720;2.910;2023-01-25T01:52:27;16.05;;;3.95;;
55728;SDS011;41633;39.720;2.910;2023-01-25T01:54:56;16.05;;;3.88;;
55728;SDS011;41633;39.720;2.910;2023-01-25T01:57:29;15.85;;;4.25;;
55728;SDS011;41633;39.720;2.910;2023-01-25T02:00:05;16.10;;;4.00;;
55728;SDS011;41633;39.720;2.910;2023-01-25T02:02:33;13.80;;;3.72;;
55728;SDS011;41633;39.720;2.910;2023-01-25T02:05:00;15.10;;;4.07;;
55728;SDS011;41633;39.720;2.910;2023-01-25T02:07:32;13.82;;;4.15;;
55728;SDS011;41633;39.720;2.910;2023-01-25T02:09:59;16.80;;;4.10;;
55728;SDS011;41633;39.720;2.910;2023-01-25T02:12:26;13.77;;;3.55;;
55728;SDS011;41633;39.720;2.910;2023-01-25T02:14:53;17.98;;;4.10;;
55728;SDS011;41633;39.720;2.910;2023-01-25T02:17:23;15.07;;;4.32;;
55728;SDS011;41633;39.720;2.910;2023-01-25T02:22:47;16.58;;;4.55;;
55728;SDS011;41633;39.720;2.910;2023-01-25T02:25:16;16.15;;;4.50;;
55728;SDS011;41633;39.720;2.910;2023-01-25T02:28:03;19.45;;;4.95;;
55728;SDS011;41633;39.720;2.910;2023-01-25T02:30:31;20.23;;;5.45;;
55728;SDS011;41633;39.720;2.910;2023-01-25T02:32:57;15.55;;;4.53;;
55728;SDS011;41633;39.720;2.910;2023-01-25T02:38:05;15.95;;;4.88;;
55728;SDS011;41633;39.720;2.910;2023-01-25T02:40:33;18.92;;;5.45;;
55728;SDS011;41633;39.720;2.910;2023-01-25T02:43:01;19.10;;;5.15;;
55728;SDS011;41633;39.720;2.910;2023-01-25T02:45:28;18.92;;;5.07;;
55728;SDS011;41633;39.720;2.910;2023-01-25T02:47:54;20.35;;;5.15;;
55728;SDS011;41633;39.720;2.910;2023-01-25T02:50:21;20.10;;;5.40;;
55728;SDS011;41633;39.720;2.910;2023-01-25T02:52:47;15.07;;;5.30;;
55728;SDS011;41633;39.720;2.910;2023-01-25T02:55:13;19.05;;;5.20;;
55728;SDS011;41633;39.720;2.910;2023-01-25T02:57:39;19.02;;;4.82;;
55728;SDS011;41633;39.720;2.910;2023-01-25T03:00:05;15.23;;;4.70;;
55728;SDS011;41633;39.720;2.910;2023-01-25T03:04:58;16.77;;;4.30;;
55728;SDS011;41633;39.720;2.910;2023-01-25T03:07:24;19.23;;;5.05;;
55728;SDS011;41633;39.720;2.910;2023-01-25T03:09:50;17.27;;;5.07;;
55728;SDS011;41633;39.720;2.910;2023-01-25T03:12:16;15.02;;;4.50;;
55728;SDS011;41633;39.720;2.910;2023-01-25T03:14:43;17.02;;;4.45;;
55728;SDS011;41633;39.720;2.910;2023-01-25T03:17:09;16.20;;;4.55;;
55728;SDS011;41633;39.720;2.910;2023-01-25T03:19:35;18.83;;;4.65;;
55728;SDS011;41633;39.720;2.910;2023-01-25T03:22:01;17.50;;;4.47;;
55728;SDS011;41633;39.720;2.910;2023-01-25T03:24:29;17.23;;;4.88;;
55728;SDS011;41633;39.720;2.910;2023-01-25T03:26:56;14.40;;;4.57;;
55728;SDS011;41633;39.720;2.910;2023-01-25T03:29:39;13.10;;;3.88;;
55728;SDS011;41633;39.720;2.910;2023-01-25T03:32:05;13.23;;;4.00;;
55728;SDS011;41633;39.720;2.910;2023-01-25T03:34:31;16.65;;;3.83;;
55728;SDS011;41633;39.720;2.910;2023-01-25T03:36:58;12.38;;;3.72;;
55728;SDS011;41633;39.720;2.910;2023-01-25T03:39:24;12.77;;;3.53;;
55728;SDS011;41633;39.720;2.910;2023-01-25T03:41:50;11.95;;;3.25;;
55728;SDS011;41633;39.720;2.910;2023-01-25T03:44:16;9.27;;;2.70;;
55728;SDS011;41633;39.720;2.910;2023-01-25T03:46:42;10.95;;;2.53;;
55728;SDS011;41633;39.720;2.910;2023-01-25T03:49:09;10.93;;;2.53;;
55728;SDS011;41633;39.720;2.910;2023-01-25T03:51:35;12.13;;;2.72;;
55728;SDS011;41633;39.720;2.910;2023-01-25T03:54:01;11.05;;;2.72;;
55728;SDS011;41633;39.720;2.910;2023-01-25T03:56:27;9.98;;;2.53;;
55728;SDS011;41633;39.720;2.910;2023-01-25T03:58:53;10.60;;;2.40;;
55728;SDS011;41633;39.720;2.910;2023-01-25T04:01:19;7.32;;;2.17;;
55728;SDS011;41633;39.720;2.910;2023-01-25T04:03:45;9.82;;;2.28;;
55728;SDS011;41633;39.720;2.910;2023-01-25T04:06:12;8.55;;;2.28;;
55728;SDS011;41633;39.720;2.910;2023-01-25T04:08:38;9.38;;;2.40;;
55728;SDS011;41633;39.720;2.910;2023-01-25T04:11:07;10.77;;;2.00;;
55728;SDS011;41633;39.720;2.910;2023-01-25T04:13:35;9.32;;;2.20;;
55728;SDS011;41633;39.720;2.910;2023-01-25T04:16:05;12.00;;;1.90;;
55728;SDS011;41633;39.720;2.910;2023-01-25T04:18:32;11.23;;;2.10;;
55728;SDS011;41633;39.720;2.910;2023-01-25T04:20:58;11.57;;;2.22;;
55728;SDS011;41633;39.720;2.910;2023-01-25T04:23:25;10.65;;;2.38;;
55728;SDS011;41633;39.720;2.910;2023-01-25T04:25:55;9.13;;;1.98;;
55728;SDS011;41633;39.720;2.910;2023-01-25T04:28:22;9.68;;;2.00;;
55728;SDS011;41633;39.720;2.910;2023-01-25T04:30:48;9.02;;;1.77;;
55728;SDS011;41633;39.720;2.910;2023-01-25T04:33:15;10.75;;;2.22;;
55728;SDS011;41633;39.720;2.910;2023-01-25T04:35:42;9.07;;;2.10;;
55728;SDS011;41633;39.720;2.910;2023-01-25T04:38:09;9.48;;;2.00;;
55728;SDS011;41633;39.720;2.910;2023-01-25T04:43:01;9.50;;;2.50;;
55728;SDS011;41633;39.720;2.910;2023-01-25T04:45:27;11.40;;;2.40;;
55728;SDS011;41633;39.720;2.910;2023-01-25T04:47:57;8.57;;;2.20;;
55728;SDS011;41633;39.720;2.910;2023-01-25T04:50:24;10.20;;;2.38;;
55728;SDS011;41633;39.720;2.910;2023-01-25T04:52:50;8.73;;;2.28;;
55728;SDS011;41633;39.720;2.910;2023-01-25T04:57:43;7.72;;;2.30;;
55728;SDS011;41633;39.720;2.910;2023-01-25T05:00:09;9.60;;;2.40;;
55728;SDS011;41633;39.720;2.910;2023-01-25T05:05:03;10.15;;;2.55;;
55728;SDS011;41633;39.720;2.910;2023-01-25T05:07:29;11.60;;;2.50;;
55728;SDS011;41633;39.720;2.910;2023-01-25T05:09:56;8.13;;;2.28;;
55728;SDS011;41633;39.720;2.910;2023-01-25T05:12:22;13.40;;;3.03;;
55728;SDS011;41633;39.720;2.910;2023-01-25T05:14:48;8.95;;;2.65;;
55728;SDS011;41633;39.720;2.910;2023-01-25T05:17:14;11.23;;;2.70;;
55728;SDS011;41633;39.720;2.910;2023-01-25T05:19:40;10.80;;;4.13;;
55728;SDS011;41633;39.720;2.910;2023-01-25T05:22:09;13.40;;;4.07;;
55728;SDS011;41633;39.720;2.910;2023-01-25T05:24:37;10.52;;;2.97;;
55728;SDS011;41633;39.720;2.910;2023-01-25T05:27:06;11.07;;;2.92;;
55728;SDS011;41633;39.720;2.910;2023-01-25T05:29:34;11.05;;;2.97;;
55728;SDS011;41633;39.720;2.910;2023-01-25T05:32:10;9.95;;;2.50;;
55728;SDS011;41633;39.720;2.910;2023-01-25T05:34:36;8.07;;;2.47;;
55728;SDS011;41633;39.720;2.910;2023-01-25T05:37:03;9.02;;;2.10;;
55728;SDS011;41633;39.720;2.910;2023-01-25T05:39:29;13.20;;;2.20;;
55728;SDS011;41633;39.720;2.910;2023-01-25T05:41:56;7.28;;;1.92;;
55728;SDS011;41633;39.720;2.910;2023-01-25T05:44:22;8.70;;;1.83;;
55728;SDS011;41633;39.720;2.910;2023-01-25T05:46:48;9.13;;;2.08;;
55728;SDS011;41633;39.720;2.910;2023-01-25T05:49:15;9.32;;;2.97;;
55728;SDS011;41633;39.720;2.910;2023-01-25T05:51:42;9.10;;;2.20;;
55728;SDS011;41633;39.720;2.910;2023-01-25T05:54:08;11.20;;;2.85;;
55728;SDS011;41633;39.720;2.910;2023-01-25T05:56:36;10.65;;;3.83;;
55728;SDS011;41633;39.720;2.910;2023-01-25T05:59:03;8.50;;;3.15;;
55728;SDS011;41633;39.720;2.910;2023-01-25T06:01:29;12.63;;;3.30;;
55728;SDS011;41633;39.720;2.910;2023-01-25T06:03:55;10.73;;;3.50;;
55728;SDS011;41633;39.720;2.910;2023-01-25T06:06:21;7.95;;;2.58;;
55728;SDS011;41633;39.720;2.910;2023-01-25T06:08:48;9.40;;;2.40;;
55728;SDS011;41633;39.720;2.910;2023-01-25T06:11:15;11.80;;;4.05;;
55728;SDS011;41633;39.720;2.910;2023-01-25T06:13:41;12.23;;;3.28;;
55728;SDS011;41633;39.720;2.910;2023-01-25T06:16:08;16.70;;;7.38;;
55728;SDS011;41633;39.720;2.910;2023-01-25T06:21:01;14.25;;;4.07;;
55728;SDS011;41633;39.720;2.910;2023-01-25T06:23:27;17.10;;;4.30;;
55728;SDS011;41633;39.720;2.910;2023-01-25T06:25:57;16.65;;;4.45;;
55728;SDS011;41633;39.720;2.910;2023-01-25T06:28:23;19.02;;;4.57;;
55728;SDS011;41633;39.720;2.910;2023-01-25T06:30:49;15.02;;;3.83;;
55728;SDS011;41633;39.720;2.910;2023-01-25T06:33:16;17.67;;;4.82;;
55728;SDS011;41633;39.720;2.910;2023-01-25T06:35:42;15.18;;;4.15;;
55728;SDS011;41633;39.720;2.910;2023-01-25T06:38:08;16.85;;;4.07;;
55728;SDS011;41633;39.720;2.910;2023-01-25T06:40:34;13.13;;;3.85;;
55728;SDS011;41633;39.720;2.910;2023-01-25T06:43:10;16.30;;;3.90;;
55728;SDS011;41633;39.720;2.910;2023-01-25T06:45:36;14.02;;;3.65;;
55728;SDS011;41633;39.720;2.910;2023-01-25T06:50:29;17.73;;;4.70;;
55728;SDS011;41633;39.720;2.910;2023-01-25T06:52:55;15.93;;;4.40;;
55728;SDS011;41633;39.720;2.910;2023-01-25T06:55:21;18.48;;;5.70;;
55728;SDS011;41633;39.720;2.910;2023-01-25T06:57:48;14.63;;;5.22;;
55728;SDS011;41633;39.720;2.910;2023-01-25T07:00:14;13.68;;;4.28;;
55728;SDS011;41633;39.720;2.910;2023-01-25T07:02:41;16.10;;;5.55;;
55728;SDS011;41633;39.720;2.910;2023-01-25T07:05:07;17.02;;;6.30;;
55728;SDS011;41633;39.720;2.910;2023-01-25T07:07:34;18.83;;;6.22;;
55728;SDS011;41633;39.720;2.910;2023-01-25T07:10:00;19.63;;;6.47;;
55728;SDS011;41633;39.720;2.910;2023-01-25T07:12:29;27.35;;;7.05;;
55728;SDS011;41633;39.720;2.910;2023-01-25T07:14:55;23.80;;;7.82;;
55728;SDS011;41633;39.720;2.910;2023-01-25T07:17:22;32.25;;;8.77;;
55728;SDS011;41633;39.720;2.910;2023-01-25T07:19:48;30.20;;;8.20;;
55728;SDS011;41633;39.720;2.910;2023-01-25T07:22:14;31.77;;;8.95;;
55728;SDS011;41633;39.720;2.910;2023-01-25T07:24:42;28.98;;;10.30;;
55728;SDS011;41633;39.720;2.910;2023-01-25T07:27:14;23.75;;;8.20;;
55728;SDS011;41633;39.720;2.910;2023-01-25T07:29:40;25.00;;;8.00;;
55728;SDS011;41633;39.720;2.910;2023-01-25T07:32:07;25.75;;;7.75;;
55728;SDS011;41633;39.720;2.910;2023-01-25T07:34:33;20.45;;;7.32;;
55728;SDS011;41633;39.720;2.910;2023-01-25T07:39:25;23.98;;;8.10;;
55728;SDS011;41633;39.720;2.910;2023-01-25T07:41:51;27.77;;;8.45;;
55728;SDS011;41633;39.720;2.910;2023-01-25T07:44:18;26.13;;;9.00;;
55728;SDS011;41633;39.720;2.910;2023-01-25T07:46:44;26.45;;;8.82;;
55728;SDS011;41633;39.720;2.910;2023-01-25T07:49:10;28.20;;;8.65;;
55728;SDS011;41633;39.720;2.910;2023-01-25T07:51:36;28.85;;;8.82;;
55728;SDS011;41633;39.720;2.910;2023-01-25T07:54:03;26.73;;;9.13;;
55728;SDS011;41633;39.720;2.910;2023-01-25T07:56:30;30.00;;;8.90;;
55728;SDS011;41633;39.720;2.910;2023-01-25T07:58:57;25.90;;;8.35;;
55728;SDS011;41633;39.720;2.910;2023-01-25T08:01:24;27.65;;;8.00;;
55728;SDS011;41633;39.720;2.910;2023-01-25T08:03:51;28.00;;;8.95;;
55728;SDS011;41633;39.720;2.910;2023-01-25T08:06:22;23.50;;;7.97;;
55728;SDS011;41633;39.720;2.910;2023-01-25T08:08:51;27.33;;;8.05;;
55728;SDS011;41633;39.720;2.910;2023-01-25T08:11:20;22.05;;;6.90;;
55728;SDS011;41633;39.720;2.910;2023-01-25T08:13:46;21.88;;;7.68;;
55728;SDS011;41633;39.720;2.910;2023-01-25T08:16:14;23.13;;;7.03;;
55728;SDS011;41633;39.720;2.910;2023-01-25T08:18:41;21.42;;;6.40;;
55728;SDS011;41633;39.720;2.910;2023-01-25T08:21:08;19.95;;;6.97;;
55728;SDS011;41633;39.720;2.910;2023-01-25T08:23:34;18.75;;;6.57;;
55728;SDS011;41633;39.720;2.910;2023-01-25T08:26:01;25.23;;;7.05;;
55728;SDS011;41633;39.720;2.910;2023-01-25T08:28:28;24.75;;;7.30;;
55728;SDS011;41633;39.720;2.910;2023-01-25T08:30:54;20.95;;;6.53;;
55728;SDS011;41633;39.720;2.910;2023-01-25T08:33:20;18.35;;;6.25;;
55728;SDS011;41633;39.720;2.910;2023-01-25T08:35:53;21.23;;;6.07;;
55728;SDS011;41633;39.720;2.910;2023-01-25T08:38:20;19.05;;;5.80;;
55728;SDS011;41633;39.720;2.910;2023-01-25T08:40:46;21.88;;;6.13;;
55728;SDS011;41633;39.720;2.910;2023-01-25T08:43:13;24.90;;;7.57;;
55728;SDS011;41633;39.720;2.910;2023-01-25T08:45:39;20.90;;;5.97;;
55728;SDS011;41633;39.720;2.910;2023-01-25T08:48:05;18.83;;;5.55;;
55728;SDS011;41633;39.720;2.910;2023-01-25T08:50:31;17.30;;;4.63;;
55728;SDS011;41633;39.720;2.910;2023-01-25T08:52:57;15.73;;;4.25;;
55728;SDS011;41633;39.720;2.910;2023-01-25T08:55:23;15.82;;;3.65;;
55728;SDS011;41633;39.720;2.910;2023-01-25T08:57:50;15.25;;;4.07;;
55728;SDS011;41633;39.720;2.910;2023-01-25T09:00:17;15.38;;;3.92;;
55728;SDS011;41633;39.720;2.910;2023-01-25T09:02:44;19.05;;;4.70;;
55728;SDS011;41633;39.720;2.910;2023-01-25T09:05:10;20.73;;;5.43;;
55728;SDS011;41633;39.720;2.910;2023-01-25T09:07:36;15.77;;;5.13;;
55728;SDS011;41633;39.720;2.910;2023-01-25T09:10:04;20.27;;;6.15;;
55728;SDS011;41633;39.720;2.910;2023-01-25T09:12:34;19.27;;;5.63;;
55728;SDS011;41633;39.720;2.910;2023-01-25T09:15:01;15.40;;;4.75;;
55728;SDS011;41633;39.720;2.910;2023-01-25T09:17:27;20.55;;;5.53;;
55728;SDS011;41633;39.720;2.910;2023-01-25T09:19:54;21.85;;;6.00;;
55728;SDS011;41633;39.720;2.910;2023-01-25T09:22:20;21.98;;;6.30;;
55728;SDS011;41633;39.720;2.910;2023-01-25T09:24:46;22.25;;;6.40;;
55728;SDS011;41633;39.720;2.910;2023-01-25T09:27:16;22.85;;;6.15;;
55728;SDS011;41633;39.720;2.910;2023-01-25T09:32:08;22.05;;;6.75;;
55728;SDS011;41633;39.720;2.910;2023-01-25T09:37:01;20.35;;;6.43;;
55728;SDS011;41633;39.720;2.910;2023-01-25T09:39:27;17.83;;;5.93;;
55728;SDS011;41633;39.720;2.910;2023-01-25T09:42:10;18.48;;;5.75;;
55728;SDS011;41633;39.720;2.910;2023-01-25T09:47:28;23.00;;;7.00;;
55728;SDS011;41633;39.720;2.910;2023-01-25T09:54:57;18.55;;;7.00;;
55728;SDS011;41633;39.720;2.910;2023-01-25T09:57:33;22.92;;;8.40;;
55728;SDS011;41633;39.720;2.910;2023-01-25T10:00:00;24.48;;;8.68;;
55728;SDS011;41633;39.720;2.910;2023-01-25T10:04:56;24.08;;;9.32;;
55728;SDS011;41633;39.720;2.910;2023-01-25T10:07:46;25.25;;;8.55;;
55728;SDS011;41633;39.720;2.910;2023-01-25T10:10:18;23.20;;;8.43;;
55728;SDS011;41633;39.720;2.910;2023-01-25T10:12:46;29.00;;;10.85;;
55728;SDS011;41633;39.720;2.910;2023-01-25T10:15:19;27.08;;;9.90;;
55728;SDS011;41633;39.720;2.910;2023-01-25T10:17:46;25.85;;;9.10;;
55728;SDS011;41633;39.720;2.910;2023-01-25T10:25:27;27.67;;;9.15;;
55728;SDS011;41633;39.720;2.910;2023-01-25T10:28:01;28.55;;;8.40;;
55728;SDS011;41633;39.720;2.910;2023-01-25T10:31:04;25.90;;;8.80;;
55728;SDS011;41633;39.720;2.910;2023-01-25T10:33:23;21.58;;;8.15;;
55728;SDS011;41633;39.720;2.910;2023-01-25T10:35:49;31.20;;;8.23;;
55728;SDS011;41633;39.720;2.910;2023-01-25T10:38:20;25.67;;;10.02;;
55728;SDS011;41633;39.720;2.910;2023-01-25T10:40:53;26.25;;;8.20;;
55728;SDS011;41633;39.720;2.910;2023-01-25T10:43:21;26.10;;;8.80;;
55728;SDS011;41633;39.720;2.910;2023-01-25T10:45:48;27.63;;;9.00;;
55728;SDS011;41633;39.720;2.910;2023-01-25T10:48:18;28.55;;;9.32;;
55728;SDS011;41633;39.720;2.910;2023-01-25T10:50:47;28.95;;;9.38;;
55728;SDS011;41633;39.720;2.910;2023-01-25T10:58:31;26.00;;;8.15;;
55728;SDS011;41633;39.720;2.910;2023-01-25T11:00:58;21.80;;;8.13;;
55728;SDS011;41633;39.720;2.910;2023-01-25T11:03:25;24.85;;;7.60;;
55728;SDS011;41633;39.720;2.910;2023-01-25T11:05:58;23.90;;;8.10;;
55728;SDS011;41633;39.720;2.910;2023-01-25T11:08:26;25.23;;;7.63;;
55728;SDS011;41633;39.720;2.910;2023-01-25T11:10:57;21.33;;;6.40;;
55728;SDS011;41633;39.720;2.910;2023-01-25T11:13:33;24.00;;;7.10;;
55728;SDS011;41633;39.720;2.910;2023-01-25T11:18:26;23.65;;;6.70;;
55728;SDS011;41633;39.720;2.910;2023-01-25T11:21:27;25.50;;;7.82;;
55728;SDS011;41633;39.720;2.910;2023-01-25T11:24:03;24.13;;;8.55;;
55728;SDS011;41633;39.720;2.910;2023-01-25T11:26:30;27.48;;;9.07;;
55728;SDS011;41633;39.720;2.910;2023-01-25T11:29:10;24.60;;;8.60;;
55728;SDS011;41633;39.720;2.910;2023-01-25T11:31:36;25.00;;;8.30;;
55728;SDS011;41633;39.720;2.910;2023-01-25T11:34:09;24.95;;;9.00;;
55728;SDS011;41633;39.720;2.910;2023-01-25T11:42:11;32.28;;;9.23;;
55728;SDS011;41633;39.720;2.910;2023-01-25T11:50:00;27.88;;;10.02;;
55728;SDS011;41633;39.720;2.910;2023-01-25T11:52:48;25.45;;;8.93;;
55728;SDS011;41633;39.720;2.910;2023-01-25T11:55:27;28.65;;;10.00;;
55728;SDS011;41633;39.720;2.910;2023-01-25T11:58:05;25.95;;;8.75;;
55728;SDS011;41633;39.720;2.910;2023-01-25T12:03:44;27.80;;;9.18;;
55728;SDS011;41633;39.720;2.910;2023-01-25T12:06:34;30.90;;;10.43;;
55728;SDS011;41633;39.720;2.910;2023-01-25T12:12:02;26.77;;;9.55;;
55728;SDS011;41633;39.720;2.910;2023-01-25T12:22:20;26.25;;;8.57;;
55728;SDS011;41633;39.720;2.910;2023-01-25T12:24:51;27.70;;;8.70;;
55728;SDS011;41633;39.720;2.910;2023-01-25T12:30:17;23.42;;;7.25;;
55728;SDS011;41633;39.720;2.910;2023-01-25T12:32:50;23.45;;;7.88;;
55728;SDS011;41633;39.720;2.910;2023-01-25T12:37:45;22.63;;;6.43;;
55728;SDS011;41633;39.720;2.910;2023-01-25T12:40:14;23.92;;;7.15;;
55728;SDS011;41633;39.720;2.910;2023-01-25T12:42:46;20.65;;;6.60;;
55728;SDS011;41633;39.720;2.910;2023-01-25T12:45:16;26.17;;;6.93;;
55728;SDS011;41633;39.720;2.910;2023-01-25T12:50:12;22.90;;;6.78;;
55728;SDS011;41633;39.720;2.910;2023-01-25T12:52:41;24.90;;;7.10;;
55728;SDS011;41633;39.720;2.910;2023-01-25T12:55:13;24.38;;;7.75;;
55728;SDS011;41633;39.720;2.910;2023-01-25T13:08:15;27.38;;;8.55;;
55728;SDS011;41633;39.720;2.910;2023-01-25T13:11:02;24.23;;;8.13;;
55728;SDS011;41633;39.720;2.910;2023-01-25T13:13:30;26.67;;;8.90;;
55728;SDS011;41633;39.720;2.910;2023-01-25T13:15:57;29.15;;;9.55;;
55728;SDS011;41633;39.720;2.910;2023-01-25T13:18:43;24.63;;;8.75;;
55728;SDS011;41633;39.720;2.910;2023-01-25T13:21:37;28.73;;;8.65;;
55728;SDS011;41633;39.720;2.910;2023-01-25T13:26:35;25.85;;;8.60;;
55728;SDS011;41633;39.720;2.910;2023-01-25T13:29:01;26.80;;;9.48;;
55728;SDS011;41633;39.720;2.910;2023-01-25T13:34:07;25.05;;;8.63;;
55728;SDS011;41633;39.720;2.910;2023-01-25T13:44:23;22.02;;;6.63;;
55728;SDS011;41633;39.720;2.910;2023-01-25T13:46:53;24.13;;;6.45;;
55728;SDS011;41633;39.720;2.910;2023-01-25T13:49:23;25.35;;;8.10;;
55728;SDS011;41633;39.720;2.910;2023-01-25T13:51:51;26.17;;;8.82;;
55728;SDS011;41633;39.720;2.910;2023-01-25T13:54:18;22.80;;;8.93;;
55728;SDS011;41633;39.720;2.910;2023-01-25T13:56:44;25.40;;;8.73;;
55728;SDS011;41633;39.720;2.910;2023-01-25T13:59:23;22.92;;;7.70;;
55728;SDS011;41633;39.720;2.910;2023-01-25T14:01:49;21.13;;;7.05;;
55728;SDS011;41633;39.720;2.910;2023-01-25T14:04:16;24.58;;;7.38;;
55728;SDS011;41633;39.720;2.910;2023-01-25T14:06:43;27.52;;;6.57;;
55728;SDS011;41633;39.720;2.910;2023-01-25T14:09:18;28.27;;;7.75;;
55728;SDS011;41633;39.720;2.910;2023-01-25T14:11:48;26.60;;;7.45;;
55728;SDS011;41633;39.720;2.910;2023-01-25T14:14:35;26.90;;;7.75;;
55728;SDS011;41633;39.720;2.910;2023-01-25T14:19:34;19.20;;;7.28;;
55728;SDS011;41633;39.720;2.910;2023-01-25T14:22:17;21.00;;;6.43;;
55728;SDS011;41633;39.720;2.910;2023-01-25T14:24:45;18.80;;;6.88;;
55728;SDS011;41633;39.720;2.910;2023-01-25T14:27:12;19.33;;;6.47;;
55728;SDS011;41633;39.720;2.910;2023-01-25T14:29:39;22.25;;;6.35;;
55728;SDS011;41633;39.720;2.910;2023-01-25T14:32:06;26.40;;;6.85;;
55728;SDS011;41633;39.720;2.910;2023-01-25T14:34:32;18.17;;;6.90;;
55728;SDS011;41633;39.720;2.910;2023-01-25T14:37:31;20.70;;;6.60;;
55728;SDS011;41633;39.720;2.910;2023-01-25T14:39:50;23.38;;;6.80;;
55728;SDS011;41633;39.720;2.910;2023-01-25T14:44:43;20.85;;;7.30;;
55728;SDS011;41633;39.720;2.910;2023-01-25T14:49:46;24.65;;;7.10;;
55728;SDS011;41633;39.720;2.910;2023-01-25T14:54:45;20.65;;;6.38;;
55728;SDS011;41633;39.720;2.910;2023-01-25T14:57:24;23.17;;;6.20;;
55728;SDS011;41633;39.720;2.910;2023-01-25T14:59:53;24.77;;;7.22;;
55728;SDS011;41633;39.720;2.910;2023-01-25T15:02:25;24.13;;;7.18;;
55728;SDS011;41633;39.720;2.910;2023-01-25T15:04:59;17.65;;;6.00;;
55728;SDS011;41633;39.720;2.910;2023-01-25T15:07:45;22.08;;;6.50;;
55728;SDS011;41633;39.720;2.910;2023-01-25T15:12:41;17.80;;;5.22;;
55728;SDS011;41633;39.720;2.910;2023-01-25T15:17:45;22.38;;;7.05;;
55728;SDS011;41633;39.720;2.910;2023-01-25T15:22:58;20.17;;;5.90;;
55728;SDS011;41633;39.720;2.910;2023-01-25T15:25:24;19.00;;;6.22;;
55728;SDS011;41633;39.720;2.910;2023-01-25T15:27:50;20.15;;;6.25;;
55728;SDS011;41633;39.720;2.910;2023-01-25T15:30:18;21.13;;;5.45;;
55728;SDS011;41633;39.720;2.910;2023-01-25T15:32:45;21.65;;;5.63;;
55728;SDS011;41633;39.720;2.910;2023-01-25T15:35:16;22.25;;;6.55;;
55728;SDS011;41633;39.720;2.910;2023-01-25T15:37:46;20.13;;;6.60;;
55728;SDS011;41633;39.720;2.910;2023-01-25T15:40:12;22.13;;;6.53;;
55728;SDS011;41633;39.720;2.910;2023-01-25T15:42:39;22.17;;;6.47;;
55728;SDS011;41633;39.720;2.910;2023-01-25T15:45:05;23.13;;;6.93;;
55728;SDS011;41633;39.720;2.910;2023-01-25T15:47:34;24.10;;;7.32;;
55728;SDS011;41633;39.720;2.910;2023-01-25T15:50:00;23.33;;;7.45;;
55728;SDS011;41633;39.720;2.910;2023-01-25T15:54:52;21.38;;;7.50;;
55728;SDS011;41633;39.720;2.910;2023-01-25T15:57:40;22.48;;;7.72;;
55728;SDS011;41633;39.720;2.910;2023-01-25T16:00:05;23.27;;;7.53;;
55728;SDS011;41633;39.720;2.910;2023-01-25T16:02:32;19.48;;;7.95;;
55728;SDS011;41633;39.720;2.910;2023-01-25T16:04:58;24.50;;;7.25;;
55728;SDS011;41633;39.720;2.910;2023-01-25T16:07:26;23.80;;;6.90;;
55728;SDS011;41633;39.720;2.910;2023-01-25T16:09:53;23.15;;;6.70;;
55728;SDS011;41633;39.720;2.910;2023-01-25T16:12:19;17.02;;;5.55;;
55728;SDS011;41633;39.720;2.910;2023-01-25T16:14:46;23.17;;;6.78;;
55728;SDS011;41633;39.720;2.910;2023-01-25T16:17:17;23.83;;;7.25;;
55728;SDS011;41633;39.720;2.910;2023-01-25T16:19:44;23.08;;;7.45;;
55728;SDS011;41633;39.720;2.910;2023-01-25T16:22:12;24.63;;;7.72;;
55728;SDS011;41633;39.720;2.910;2023-01-25T16:24:39;24.88;;;7.38;;
55728;SDS011;41633;39.720;2.910;2023-01-25T16:27:07;24.98;;;7.18;;
55728;SDS011;41633;39.720;2.910;2023-01-25T16:29:33;21.75;;;6.70;;
55728;SDS011;41633;39.720;2.910;2023-01-25T16:32:00;23.25;;;6.38;;
55728;SDS011;41633;39.720;2.910;2023-01-25T16:34:26;25.05;;;6.63;;
55728;SDS011;41633;39.720;2.910;2023-01-25T16:36:52;18.02;;;6.72;;
55728;SDS011;41633;39.720;2.910;2023-01-25T16:39:23;23.73;;;7.07;;
55728;SDS011;41633;39.720;2.910;2023-01-25T16:41:49;23.55;;;7.25;;
55728;SDS011;41633;39.720;2.910;2023-01-25T16:44:15;29.10;;;8.50;;
55728;SDS011;41633;39.720;2.910;2023-01-25T16:46:42;23.77;;;7.63;;
55728;SDS011;41633;39.720;2.910;2023-01-25T16:51:35;23.98;;;9.70;;
55728;SDS011;41633;39.720;2.910;2023-01-25T16:54:02;30.17;;;12.98;;
55728;SDS011;41633;39.720;2.910;2023-01-25T16:56:29;38.45;;;16.52;;
55728;SDS011;41633;39.720;2.910;2023-01-25T16:58:56;33.45;;;15.70;;
55728;SDS011;41633;39.720;2.910;2023-01-25T17:01:23;32.38;;;16.05;;